createdAt,value
2019-02-22T00:03:38.682Z,5.70
2019-02-22T00:06:19.855Z,5.70
2019-02-22T00:09:00.909Z,5.70
2019-02-22T00:11:41.466Z,5.80
2019-02-22T00:14:21.899Z,5.80
2019-02-22T00:17:02.742Z,5.80
2019-02-22T00:19:43.750Z,5.80
2019-02-22T00:22:24.214Z,5.90
2019-02-22T00:25:05.494Z,5.80
2019-02-22T00:27:46.265Z,5.90
2019-02-22T00:30:27.058Z,5.90
2019-02-22T00:33:07.754Z,5.90
2019-02-22T00:35:48.601Z,5.90
2019-02-22T00:38:29.270Z,6.00
2019-02-22T00:41:09.971Z,6.10
2019-02-22T00:43:50.977Z,6.20
2019-02-22T00:46:31.616Z,6.30
2019-02-22T00:49:12.545Z,6.40
2019-02-22T00:51:53.125Z,6.50
2019-02-22T00:54:33.981Z,6.60
2019-02-22T00:57:14.721Z,6.70
2019-02-22T00:59:55.673Z,6.70
2019-02-22T01:02:36.506Z,6.70
2019-02-22T01:05:17.289Z,6.60
2019-02-22T01:07:57.971Z,6.60
2019-02-22T01:10:38.558Z,6.60
2019-02-22T01:13:19.427Z,6.60
2019-02-22T01:16:00.028Z,6.60
2019-02-22T01:18:40.743Z,6.70
2019-02-22T01:21:21.173Z,6.80
2019-02-22T01:24:01.918Z,6.80
2019-02-22T01:26:42.507Z,6.80
2019-02-22T01:29:23.214Z,6.90
2019-02-22T01:32:03.921Z,7.00
2019-02-22T01:34:44.521Z,7.00
2019-02-22T01:37:25.127Z,6.90
2019-02-22T01:40:05.827Z,6.90
2019-02-22T01:42:46.470Z,6.90
2019-02-22T01:45:27.086Z,6.80
2019-02-22T01:48:07.491Z,6.80
2019-02-22T01:50:48.139Z,6.80
2019-02-22T01:53:28.793Z,6.80
2019-02-22T01:56:09.592Z,6.80
2019-02-22T01:58:50.328Z,6.70
2019-02-22T02:01:31.010Z,6.70
2019-02-22T02:04:11.958Z,6.70
2019-02-22T02:06:52.557Z,6.70
2019-02-22T02:09:33.439Z,6.80
2019-02-22T02:12:14.191Z,6.80
2019-02-22T02:14:54.942Z,6.80
2019-02-22T02:17:35.474Z,6.80
2019-02-22T02:20:16.432Z,6.70
2019-02-22T02:22:57.281Z,6.70
2019-02-22T02:25:38.218Z,6.70
2019-02-22T02:28:18.783Z,6.70
2019-02-22T02:30:59.510Z,6.70
2019-02-22T02:33:40.238Z,6.70
2019-02-22T02:36:21.019Z,6.70
2019-02-22T02:39:01.617Z,6.70
2019-02-22T02:41:42.527Z,6.70
2019-02-22T02:44:23.666Z,6.70
2019-02-22T02:47:04.694Z,6.60
2019-02-22T02:49:45.325Z,6.60
2019-02-22T02:52:25.987Z,6.60
2019-02-22T02:55:06.756Z,6.70
2019-02-22T02:57:47.425Z,6.70
2019-02-22T03:00:28.487Z,6.70
2019-02-22T03:03:08.980Z,6.70
2019-02-22T03:06:08.484Z,6.60
2019-02-22T03:08:48.921Z,6.60
2019-02-22T03:11:29.507Z,6.50
2019-02-22T03:14:10.276Z,6.50
2019-02-22T03:16:50.977Z,6.50
2019-02-22T03:19:31.641Z,6.50
2019-02-22T03:22:12.413Z,6.50
2019-02-22T03:24:53.739Z,6.60
2019-02-22T03:27:22.750Z,6.60
2019-02-22T03:30:10.874Z,6.50
2019-02-22T03:32:59.006Z,6.60
2019-02-22T03:35:47.377Z,6.60
2019-02-22T03:38:35.635Z,6.60
2019-02-22T03:41:32.154Z,6.60
2019-02-22T03:44:13.610Z,6.60
2019-02-22T03:47:01.671Z,6.70
2019-02-22T03:49:49.711Z,6.70
2019-02-22T03:55:36.723Z,6.80
2019-02-22T03:58:24.781Z,6.80
2019-02-22T04:01:12.900Z,7.00
2019-02-22T04:04:00.946Z,7.10
2019-02-22T04:06:49.099Z,7.10
2019-02-22T04:09:37.144Z,7.20
2019-02-22T04:12:25.205Z,7.20
2019-02-22T04:15:13.398Z,7.20
2019-02-22T04:18:01.521Z,7.20
2019-02-22T04:20:49.663Z,7.10
2019-02-22T04:23:37.798Z,7.10
2019-02-22T04:26:25.923Z,7.10
2019-02-22T04:29:14.234Z,7.10
2019-02-22T04:32:02.344Z,7.10
2019-02-22T04:34:50.524Z,7.10
2019-02-22T04:37:38.827Z,7.10
2019-02-22T04:40:26.871Z,7.00
2019-02-22T04:43:15.251Z,7.00
2019-02-22T04:46:03.285Z,7.00
2019-02-22T04:48:51.413Z,6.90
2019-02-22T04:51:39.453Z,7.00
2019-02-22T04:54:27.490Z,6.90
2019-02-22T04:57:08.120Z,6.90
2019-02-22T04:59:49.011Z,6.90
2019-02-22T05:02:29.366Z,6.90
2019-02-22T05:05:09.872Z,6.90
2019-02-22T05:07:50.600Z,7.00
2019-02-22T05:10:31.180Z,6.90
2019-02-22T05:13:11.888Z,7.00
2019-02-22T05:15:52.614Z,7.00
2019-02-22T05:18:33.143Z,7.00
2019-02-22T05:21:13.702Z,7.00
2019-02-22T05:23:54.136Z,7.00
2019-02-22T05:26:34.613Z,7.00
2019-02-22T05:29:15.218Z,7.00
2019-02-22T05:31:44.103Z,7.00
2019-02-22T05:34:32.470Z,7.00
2019-02-22T05:37:20.770Z,7.00
2019-02-22T05:40:09.158Z,7.00
2019-02-22T05:42:57.210Z,7.00
2019-02-22T05:45:45.250Z,7.00
2019-02-22T05:48:33.302Z,7.00
2019-02-22T05:51:21.667Z,7.00
2019-02-22T05:54:09.714Z,7.00
2019-02-22T05:56:50.818Z,7.10
2019-02-22T05:59:31.414Z,7.00
2019-02-22T06:02:14.414Z,7.00
2019-02-22T06:04:54.729Z,7.00
2019-02-22T06:07:35.228Z,7.00
2019-02-22T06:10:16.146Z,7.00
2019-02-22T06:12:56.853Z,7.10
2019-02-22T06:15:37.618Z,7.10
2019-02-22T06:18:18.291Z,7.10
2019-02-22T06:20:59.014Z,7.10
2019-02-22T06:23:39.495Z,7.10
2019-02-22T06:26:20.165Z,7.10
2019-02-22T06:29:00.999Z,7.20
2019-02-22T06:31:41.922Z,7.20
2019-02-22T06:34:22.710Z,7.10
2019-02-22T06:37:03.532Z,7.10
2019-02-22T06:39:44.262Z,7.20
2019-02-22T06:42:24.933Z,7.20
2019-02-22T06:45:05.998Z,7.20
2019-02-22T06:47:46.490Z,7.20
2019-02-22T06:50:33.743Z,7.20
2019-02-22T06:53:10.085Z,7.20
2019-02-22T06:55:50.710Z,7.30
2019-02-22T06:58:31.471Z,7.30
2019-02-22T07:01:12.050Z,7.30
2019-02-22T07:03:52.692Z,7.30
2019-02-22T07:06:33.213Z,7.40
2019-02-22T07:09:14.000Z,7.30
2019-02-22T07:12:17.337Z,7.30
2019-02-22T07:14:57.974Z,7.30
2019-02-22T07:17:38.805Z,7.30
2019-02-22T07:20:19.430Z,7.40
2019-02-22T07:23:00.281Z,7.40
2019-02-22T07:25:41.007Z,7.40
2019-02-22T07:28:22.161Z,7.40
2019-02-22T07:31:03.145Z,7.40
2019-02-22T07:33:43.734Z,7.40
2019-02-22T07:36:24.462Z,7.40
2019-02-22T07:39:05.674Z,7.40
2019-02-22T07:41:46.491Z,7.50
2019-02-22T07:44:27.270Z,7.40
2019-02-22T07:47:07.658Z,7.40
2019-02-22T07:49:48.433Z,7.40
2019-02-22T07:52:29.110Z,7.40
2019-02-22T07:55:09.894Z,7.40
2019-02-22T07:57:48.994Z,7.50
2019-02-22T08:00:37.151Z,7.50
2019-02-22T08:03:25.266Z,7.50
2019-02-22T08:06:13.324Z,7.50
2019-02-22T08:09:01.369Z,7.60
2019-02-22T08:11:49.553Z,7.60
2019-02-22T08:14:37.685Z,7.70
2019-02-22T08:17:25.738Z,7.90
2019-02-22T08:20:13.785Z,8.10
2019-02-22T08:23:01.833Z,8.20
2019-02-22T08:25:50.133Z,8.30
2019-02-22T08:28:38.173Z,8.40
2019-02-22T08:31:26.333Z,8.50
2019-02-22T08:34:14.374Z,8.60
2019-02-22T08:37:02.426Z,8.70
2019-02-22T08:39:58.719Z,8.80
2019-02-22T08:42:21.041Z,8.80
2019-02-22T08:45:09.812Z,8.90
2019-02-22T08:47:59.034Z,9.10
2019-02-22T08:50:47.167Z,9.30
2019-02-22T08:53:35.218Z,9.40
2019-02-22T08:56:16.430Z,9.50
2019-02-22T08:58:56.973Z,9.70
2019-02-22T09:01:37.578Z,9.80
2019-02-22T09:04:18.245Z,9.80
2019-02-22T09:06:58.943Z,9.90
2019-02-22T09:09:39.718Z,9.80
2019-02-22T09:12:20.255Z,10.10
2019-02-22T09:15:01.282Z,10.30
2019-02-22T09:17:41.812Z,10.20
2019-02-22T09:20:22.470Z,9.90
2019-02-22T09:23:03.174Z,9.80
2019-02-22T09:25:43.961Z,9.70
2019-02-22T09:28:24.681Z,9.80
2019-02-22T09:31:05.336Z,10.00
2019-02-22T09:33:45.710Z,10.10
2019-02-22T09:36:26.482Z,10.00
2019-02-22T09:39:07.139Z,9.90
2019-02-22T09:41:47.859Z,10.00
2019-02-22T09:44:28.402Z,10.00
2019-02-22T09:47:09.254Z,10.00
2019-02-22T09:49:50.052Z,10.00
2019-02-22T09:52:30.846Z,10.10
2019-02-22T09:55:11.529Z,10.10
2019-02-22T09:57:52.208Z,10.00
2019-02-22T10:00:32.969Z,9.90
2019-02-22T10:03:13.690Z,10.00
2019-02-22T10:05:54.498Z,9.90
2019-02-22T10:08:35.222Z,9.90
2019-02-22T10:11:16.018Z,9.90
2019-02-22T10:14:06.331Z,9.90
2019-02-22T10:16:39.132Z,9.90
2019-02-22T10:19:19.487Z,9.80
2019-02-22T10:22:00.230Z,9.80
2019-02-22T10:24:40.597Z,9.80
2019-02-22T10:27:21.200Z,9.80
2019-02-22T10:30:01.531Z,9.90
2019-02-22T10:32:42.265Z,9.90
2019-02-22T10:38:05.205Z,10.00
2019-02-22T10:40:46.241Z,10.10
2019-02-22T10:43:27.410Z,10.30
2019-02-22T10:46:08.713Z,10.20
2019-02-22T10:48:49.532Z,10.20
2019-02-22T10:51:29.970Z,10.20
2019-02-22T10:54:10.559Z,10.20
2019-02-22T10:56:51.040Z,10.30
2019-02-22T10:59:31.761Z,10.40
2019-02-22T11:02:12.417Z,10.60
2019-02-22T11:04:53.125Z,11.00
2019-02-22T11:07:34.138Z,12.00
2019-02-22T11:10:14.697Z,12.50
2019-02-22T11:12:43.767Z,12.40
2019-02-22T11:15:31.857Z,12.20
2019-02-22T11:18:19.905Z,12.00
2019-02-22T11:21:08.029Z,11.80
2019-02-22T11:23:56.178Z,11.80
2019-02-22T11:26:44.253Z,11.70
2019-02-22T11:29:32.369Z,12.80
2019-02-22T11:32:20.413Z,13.00
2019-02-22T11:35:08.698Z,13.00
2019-02-22T11:37:56.837Z,13.10
2019-02-22T11:40:44.889Z,12.80
2019-02-22T11:43:32.941Z,12.80
2019-02-22T11:46:21.232Z,13.30
2019-02-22T11:49:09.349Z,13.30
2019-02-22T11:51:57.517Z,13.10
2019-02-22T11:54:45.632Z,12.80
2019-02-22T11:57:26.650Z,12.70
2019-02-22T12:00:07.726Z,12.50
2019-02-22T12:02:49.012Z,12.30
2019-02-22T12:05:29.397Z,12.30
2019-02-22T12:08:09.931Z,12.30
2019-02-22T12:10:50.704Z,12.30
2019-02-22T12:13:32.317Z,12.20
2019-02-22T12:16:13.518Z,11.50
2019-02-22T12:18:54.651Z,11.20
2019-02-22T12:21:35.128Z,10.90
2019-02-22T12:24:14.202Z,10.80
2019-02-22T12:27:02.319Z,10.60
2019-02-22T12:29:50.566Z,10.80
2019-02-22T12:32:39.591Z,11.00
2019-02-22T12:35:28.437Z,11.30
2019-02-22T12:38:16.488Z,11.60
2019-02-22T12:41:04.633Z,11.90
2019-02-22T12:43:52.952Z,12.40
2019-02-22T12:46:41.061Z,13.50
2019-02-22T12:49:29.111Z,13.80
2019-02-22T12:52:17.146Z,13.70
2019-02-22T12:55:05.833Z,13.50
2019-02-22T12:57:46.678Z,13.10
2019-02-22T13:00:27.749Z,12.60
2019-02-22T13:03:08.371Z,12.10
2019-02-22T13:05:49.139Z,12.00
2019-02-22T13:08:28.314Z,11.80
2019-02-22T13:11:16.425Z,11.70
2019-02-22T13:14:04.556Z,11.60
2019-02-22T13:16:52.874Z,11.50
2019-02-22T13:19:40.925Z,11.60
2019-02-22T13:22:29.058Z,11.70
2019-02-22T13:25:17.169Z,11.90
2019-02-22T13:28:05.958Z,12.10
2019-02-22T13:30:53.999Z,12.50
2019-02-22T13:33:42.049Z,12.60
2019-02-22T13:36:30.090Z,12.80
2019-02-22T13:39:18.218Z,13.00
2019-02-22T13:42:06.382Z,13.00
2019-02-22T13:44:54.437Z,12.90
2019-02-22T13:47:42.546Z,12.90
2019-02-22T13:50:30.722Z,12.80
2019-02-22T13:53:18.834Z,12.60
2019-02-22T13:56:07.002Z,12.40
2019-02-22T13:58:47.283Z,12.60
2019-02-22T14:01:27.726Z,12.80
2019-02-22T14:04:08.085Z,13.10
2019-02-22T14:06:48.715Z,13.40
2019-02-22T14:09:29.587Z,13.40
2019-02-22T14:14:52.225Z,13.40
2019-02-22T14:20:14.717Z,13.60
2019-02-22T14:25:37.290Z,13.00
2019-02-22T14:28:17.910Z,12.60
2019-02-22T14:30:58.633Z,12.60
2019-02-22T14:33:39.445Z,12.20
2019-02-22T14:36:20.333Z,12.10
2019-02-22T14:39:00.931Z,12.00
2019-02-22T14:41:41.639Z,11.80
2019-02-22T14:44:22.334Z,11.60
2019-02-22T14:49:45.233Z,11.20
2019-02-22T14:55:06.913Z,11.10
2019-02-22T14:57:47.373Z,11.00
2019-02-22T15:00:27.870Z,11.00
2019-02-22T15:03:08.969Z,11.10
2019-02-22T15:05:49.378Z,11.10
2019-02-22T15:08:30.381Z,11.00
2019-02-22T15:11:10.947Z,10.90
2019-02-22T15:13:51.562Z,10.90
2019-02-22T15:16:53.875Z,10.90
2019-02-22T15:19:34.666Z,10.80
2019-02-22T15:22:15.920Z,10.70
2019-02-22T15:24:56.675Z,10.80
2019-02-22T15:27:37.404Z,10.80
2019-02-22T15:30:18.139Z,10.70
2019-02-22T15:35:40.628Z,10.60
2019-02-22T15:41:05.128Z,10.40
2019-02-22T15:49:27.485Z,10.20
2019-02-22T15:54:57.385Z,10.10
2019-02-22T15:57:38.346Z,10.00
2019-02-22T16:00:22.358Z,10.00
2019-02-22T16:03:03.622Z,9.90
2019-02-22T16:05:45.341Z,9.90
2019-02-22T16:08:25.818Z,9.80
2019-02-22T16:11:08.171Z,9.70
2019-02-22T16:13:49.042Z,9.50
2019-02-22T16:16:29.647Z,9.40
2019-02-22T16:19:10.208Z,9.30
2019-02-22T16:21:51.077Z,9.20
2019-02-22T16:24:31.809Z,9.10
2019-02-22T16:27:12.267Z,9.00
2019-02-22T16:29:52.909Z,8.90
2019-02-22T16:32:33.830Z,8.80
2019-02-22T16:35:14.565Z,8.80
2019-02-22T16:37:55.181Z,8.70
2019-02-22T16:40:35.789Z,8.60
2019-02-22T16:43:16.543Z,8.60
2019-02-22T16:45:57.229Z,8.50
2019-02-22T16:48:37.932Z,8.40
2019-02-22T16:51:18.520Z,8.30
2019-02-22T16:53:59.151Z,8.10
2019-02-22T16:56:40.493Z,8.00
2019-02-22T16:59:20.946Z,7.80
2019-02-22T17:02:01.710Z,7.60
2019-02-22T17:04:42.336Z,7.50
2019-02-22T17:07:23.164Z,7.30
2019-02-22T17:10:04.242Z,7.20
2019-02-22T17:12:44.855Z,7.10
2019-02-22T17:20:55.409Z,7.00
2019-02-22T17:23:43.458Z,7.00
2019-02-22T17:26:31.821Z,7.00
2019-02-22T17:29:19.929Z,7.00
2019-02-22T17:32:07.977Z,7.10
2019-02-22T17:37:44.869Z,7.30
2019-02-22T17:40:32.999Z,7.30
2019-02-22T17:43:21.037Z,7.30
2019-02-22T17:46:09.068Z,7.40
2019-02-22T17:48:57.129Z,7.40
2019-02-22T17:51:45.413Z,7.50
2019-02-22T17:54:33.601Z,7.40
2019-02-22T17:57:14.769Z,7.40
2019-02-22T17:59:55.825Z,7.40
2019-02-22T18:02:36.475Z,7.40
2019-02-22T18:05:17.282Z,7.40
2019-02-22T18:07:58.229Z,7.40
2019-02-22T18:10:38.879Z,7.40
2019-02-22T18:13:20.123Z,7.30
2019-02-22T18:18:43.526Z,7.30
2019-02-22T18:21:23.948Z,7.30
2019-02-22T18:24:05.264Z,7.30
2019-02-22T18:29:35.032Z,7.20
2019-02-22T18:32:10.485Z,7.10
2019-02-22T18:34:50.982Z,7.10
2019-02-22T18:37:31.549Z,7.10
2019-02-22T18:40:11.937Z,7.00
2019-02-22T18:42:52.748Z,7.00
2019-02-22T18:45:33.230Z,7.00
2019-02-22T18:48:13.823Z,6.90
2019-02-22T18:50:54.565Z,6.90
2019-02-22T18:53:35.102Z,6.80
2019-02-22T18:56:15.774Z,6.80
2019-02-22T18:58:56.263Z,6.70
2019-02-22T19:01:37.057Z,6.60
2019-02-22T19:04:17.837Z,6.50
2019-02-22T19:06:58.537Z,6.40
2019-02-22T19:09:39.253Z,6.30
2019-02-22T19:12:19.900Z,6.20
2019-02-22T19:15:00.611Z,6.10
2019-02-22T19:17:41.121Z,6.10
2019-02-22T19:20:21.642Z,6.00
2019-02-22T19:23:02.403Z,6.00
2019-02-22T19:25:46.241Z,5.90
2019-02-22T19:31:09.739Z,5.70
2019-02-22T19:33:50.335Z,5.70
2019-02-22T19:36:31.230Z,5.60
2019-02-22T19:39:12.625Z,5.50
2019-02-22T19:41:41.565Z,5.40
2019-02-22T19:44:29.605Z,5.30
2019-02-22T19:47:17.986Z,5.30
2019-02-22T19:50:06.885Z,5.20
2019-02-22T19:52:54.922Z,5.10
2019-02-22T19:55:42.978Z,5.00
2019-02-22T19:58:24.222Z,5.00
2019-02-22T20:01:05.138Z,4.90
2019-02-22T20:03:46.018Z,4.90
2019-02-22T20:06:26.543Z,4.90
2019-02-22T20:09:06.913Z,4.80
2019-02-22T20:11:48.717Z,4.80
2019-02-22T20:14:29.969Z,4.80
2019-02-22T20:17:10.688Z,4.80
2019-02-22T20:19:51.367Z,4.70
2019-02-22T20:22:20.553Z,4.80
2019-02-22T20:25:08.621Z,4.80
2019-02-22T20:27:56.821Z,4.70
2019-02-22T20:30:44.899Z,4.70
2019-02-22T20:33:33.016Z,4.60
2019-02-22T20:36:28.079Z,4.50
2019-02-22T20:39:10.893Z,4.40
2019-02-22T20:41:58.933Z,4.30
2019-02-22T20:44:47.047Z,4.10
2019-02-22T20:47:35.093Z,4.00
2019-02-22T20:50:23.142Z,3.80
2019-02-22T20:53:11.210Z,3.80
2019-02-22T20:55:59.253Z,3.60
2019-02-22T20:58:39.669Z,3.50
2019-02-22T21:04:02.533Z,3.40
2019-02-22T21:06:43.250Z,3.30
2019-02-22T21:09:23.788Z,3.20
2019-02-22T21:17:36.590Z,3.00
2019-02-22T21:23:03.684Z,2.80
2019-02-22T21:28:26.870Z,2.70
2019-02-22T21:31:07.497Z,2.60
2019-02-22T21:33:51.197Z,2.50
2019-02-22T21:36:32.327Z,2.40
2019-02-22T21:39:13.011Z,2.30
2019-02-22T21:41:53.691Z,2.20
2019-02-22T21:44:34.395Z,2.10
2019-02-22T21:47:13.458Z,2.00
2019-02-22T21:50:01.573Z,1.90
2019-02-22T21:52:49.695Z,1.90
2019-02-22T21:55:37.737Z,1.80
2019-02-22T21:58:18.250Z,1.80
2019-02-22T22:00:58.813Z,1.80
2019-02-22T22:03:39.229Z,1.70
2019-02-22T22:06:20.558Z,1.70
2019-02-22T22:09:01.254Z,1.60
2019-02-22T22:11:41.903Z,1.40
2019-02-22T22:14:22.682Z,1.40
2019-02-22T22:17:03.219Z,1.30
2019-02-22T22:19:44.027Z,1.30
2019-02-22T22:22:24.898Z,1.20
2019-02-22T22:25:05.605Z,1.10
2019-02-22T22:27:46.146Z,1.10
2019-02-22T22:33:15.982Z,0.90
2019-02-22T22:38:45.582Z,0.80
2019-02-22T22:44:15.533Z,0.80
2019-02-22T22:46:56.383Z,0.70
2019-02-22T22:49:40.777Z,0.70
2019-02-22T22:55:07.138Z,0.70
2019-02-22T22:57:47.869Z,0.60
2019-02-22T23:00:35.638Z,0.60
2019-02-22T23:03:17.019Z,0.50
2019-02-22T23:05:57.343Z,0.50
2019-02-22T23:08:38.365Z,0.40
2019-02-22T23:11:19.926Z,0.40
2019-02-22T23:14:00.305Z,0.30
2019-02-22T23:16:40.924Z,0.30
2019-02-22T23:19:21.665Z,0.20
2019-02-22T23:22:02.253Z,0.20
2019-02-22T23:24:43.186Z,0.10
2019-02-22T23:27:23.995Z,0.10
2019-02-22T23:30:04.765Z,0.00
2019-02-22T23:35:27.930Z,-0.20
2019-02-22T23:38:08.881Z,-0.20
2019-02-22T23:40:49.434Z,-0.40
2019-02-22T23:43:30.051Z,-0.40
2019-02-22T23:46:10.569Z,-0.40
2019-02-22T23:48:51.172Z,-0.50
2019-02-22T23:51:32.017Z,-0.60
2019-02-22T23:54:12.679Z,-0.70
2019-02-22T23:56:53.406Z,-0.70
2019-02-22T23:59:34.106Z,-0.70
